»·PEaware :: VV73 KPSP-KSBA

VV73 :: KPSP-KSBA

FLIGHT INFORMATION

Flight Status: Arrived
Operator: Unknown
More flights by this operator :: More flights under this callsign
Pilot: Joshua E. (3547)
Aircraft: BEECH AIRCRAFT T-6A TEXAN
(TEX2)
More flights by this aircraft type
Origin: KPSP Palm Springs Intl
United States
Destination: KSBA Santa Barbara Mun
United States
More flights between these airports :: More routes between these airports
Route: +CATH1 PSP V388 PDZ V186 DEANO V27 KWANG
File this flight plan on PilotEdge
Remarks: TEC Route PSPP16
Altitude:
(Current/Filed)
11,000ft
Speed:
(Current/Filed)
200kts
Departed: 18-Jul-20 08:38 PM
Arrived: 18-Jul-20 09:31 PM
Distance/Time
Traveled:
170nm/0:52
Distance/Time
To Go:
Arrived

Flight Plot

Page will automatically refresh every two minutes.


Map Options




Map Legend


Flown Route
Filed Route
Departure Airport
Arrival Airport
Navaid (VOR, NDB)
Fix

Horizontal Profiles

Position Reports

Time Latitude Longitude Heading Altitude Ground
Speed
18-Jul-20 20:20 33.826177 -116.508751 269 481ft 0kts
18-Jul-20 20:21 33.826177 -116.508751 269 481ft 0kts
18-Jul-20 20:22 33.826177 -116.508751 269 481ft 0kts
18-Jul-20 20:23 33.826177 -116.508751 269 481ft 0kts
18-Jul-20 20:24 33.826177 -116.508751 269 481ft 0kts
18-Jul-20 20:25 33.826177 -116.508751 269 481ft 0kts
18-Jul-20 20:26 33.826177 -116.508751 269 481ft 0kts
18-Jul-20 20:27 33.826177 -116.508751 269 481ft 0kts
18-Jul-20 20:29 33.826177 -116.508751 269 481ft 0kts
18-Jul-20 20:30 33.826177 -116.508751 269 481ft 0kts
18-Jul-20 20:31 33.826177 -116.508751 269 481ft 0kts
18-Jul-20 20:32 33.826177 -116.508751 269 481ft 0kts
18-Jul-20 20:33 33.825679 -116.508684 135 481ft 7kts
18-Jul-20 20:34 33.825121 -116.506443 74 481ft 6kts
18-Jul-20 20:35 33.824095 -116.504771 142 481ft 16kts
18-Jul-20 20:36 33.820192 -116.501273 142 481ft 28kts
18-Jul-20 20:37 33.818517 -116.498989 91 481ft 0kts
18-Jul-20 20:38 33.819660 -116.498761 323 481ft 55kts
18-Jul-20 20:39 33.848748 -116.526129 320 2584ft 161kts
18-Jul-20 20:40 33.883799 -116.560236 335 5856ft 174kts
18-Jul-20 20:41 33.895509 -116.516763 103 8587ft 193kts
18-Jul-20 20:42 33.906504 -116.467770 331 10049ft 240kts
18-Jul-20 20:42 33.921014 -116.528731 275 11005ft 241kts
18-Jul-20 20:44 33.929711 -116.620573 280 10916ft 229kts
18-Jul-20 20:45 33.943570 -116.694979 281 10971ft 227kts
18-Jul-20 20:45 33.948394 -116.757780 262 10999ft 226kts
18-Jul-20 20:46 33.939436 -116.832964 263 10960ft 227kts
18-Jul-20 20:48 33.933474 -116.921324 265 10925ft 230kts
18-Jul-20 20:48 33.930370 -116.985686 271 10918ft 231kts
18-Jul-20 20:49 33.927601 -117.061847 265 10991ft 228kts
18-Jul-20 20:50 33.924638 -117.138874 268 10998ft 229kts
18-Jul-20 20:51 33.928789 -117.215744 276 11003ft 229kts
18-Jul-20 20:52 33.926857 -117.292366 266 10947ft 231kts
18-Jul-20 20:53 33.924410 -117.369657 266 10957ft 229kts
18-Jul-20 20:55 33.919854 -117.459297 267 10961ft 228kts
18-Jul-20 20:55 33.916854 -117.524029 274 10767ft 242kts
18-Jul-20 20:56 33.937799 -117.593442 305 10634ft 225kts
18-Jul-20 20:57 33.964473 -117.660872 289 10938ft 228kts
18-Jul-20 20:58 33.988916 -117.735076 294 11086ft 237kts
18-Jul-20 20:59 34.015984 -117.807911 291 10959ft 235kts
18-Jul-20 21:00 34.042317 -117.879883 296 10960ft 234kts
18-Jul-20 21:01 34.070832 -117.950613 295 10956ft 234kts
18-Jul-20 21:02 34.090902 -118.024957 287 10937ft 233kts
18-Jul-20 21:03 34.106486 -118.100595 279 10937ft 233kts
18-Jul-20 21:04 34.120711 -118.176315 288 10903ft 230kts
18-Jul-20 21:05 34.140680 -118.249589 288 10938ft 229kts
18-Jul-20 21:06 34.162868 -118.321748 294 10959ft 229kts
18-Jul-20 21:07 34.187851 -118.392200 291 10951ft 229kts
18-Jul-20 21:08 34.213297 -118.462902 298 10943ft 230kts
18-Jul-20 21:09 34.236140 -118.535221 291 10959ft 230kts
18-Jul-20 21:10 34.259759 -118.607383 290 10979ft 230kts
18-Jul-20 21:11 34.283942 -118.679288 295 10971ft 230kts
18-Jul-20 21:12 34.309959 -118.749959 287 10964ft 230kts
18-Jul-20 21:13 34.333707 -118.821772 296 11007ft 230kts
18-Jul-20 21:14 34.360398 -118.892472 286 10988ft 230kts
18-Jul-20 21:15 34.351912 -118.967623 270 10865ft 232kts
18-Jul-20 21:16 34.345040 -119.043362 269 9334ft 235kts
18-Jul-20 21:17 34.340078 -119.118548 259 7956ft 214kts
18-Jul-20 21:18 34.333445 -119.190078 266 6339ft 212kts
18-Jul-20 21:19 34.331808 -119.260028 268 4829ft 203kts
18-Jul-20 21:20 34.330925 -119.328171 268 4033ft 208kts
18-Jul-20 21:21 34.331186 -119.399514 269 4049ft 213kts
18-Jul-20 21:22 34.330808 -119.471664 262 3929ft 217kts
18-Jul-20 21:23 34.330022 -119.543868 275 3961ft 212kts
18-Jul-20 21:24 34.347110 -119.610508 292 3479ft 200kts
18-Jul-20 21:25 34.364382 -119.663091 289 2124ft 149kts
18-Jul-20 21:26 34.380786 -119.706545 291 2043ft 140kts
18-Jul-20 21:27 34.398070 -119.749169 298 1500ft 144kts
18-Jul-20 21:28 34.412866 -119.789591 288 1065ft 122kts
18-Jul-20 21:29 34.428171 -119.824474 268 283ft 130kts
18-Jul-20 21:30 34.428365 -119.846000 55 17ft 11kts
18-Jul-20 21:31 34.429387 -119.845185 175 17ft 0kts
18-Jul-20 21:32 34.429387 -119.845185 175 17ft 0kts

Navigation Log

Ident Type
Flight plan parsing failed, navigation log unavailable